Time;durP1;ratioP1;P1;durP2;ratioP2;P2;SDS_P1;SDS_P2;PMS_P1;PMS_P2;Temp;Humidity;BMP_temperature;BMP_pressure;BME280_temperature;BME280_humidity;BME280_pressure;Samples;Min_cycle;Max_cycle;Signal;HPM_P1;HPM_P2
2023/06/23 00:00:52;;;;;;;19.65;12.38;;;19.90;99.90;;;;;;5097383;28;20224;-88
2023/06/23 00:03:18;;;;;;;20.30;12.27;;;19.90;99.90;;;;;;5100414;28;20232;-88
2023/06/23 00:05:43;;;;;;;19.33;12.77;;;19.90;99.90;;;;;;5085337;28;20193;-88
2023/06/23 00:08:10;;;;;;;20.10;12.40;;;20.00;99.90;;;;;;5107655;27;20185;-87
2023/06/23 00:10:36;;;;;;;21.15;11.95;;;20.00;99.90;;;;;;5085188;28;20205;-89
2023/06/23 00:13:02;;;;;;;20.33;11.55;;;20.00;99.90;;;;;;5099348;27;22029;-87
2023/06/23 00:15:28;;;;;;;18.30;10.48;;;19.90;99.90;;;;;;5102793;28;20254;-88
2023/06/23 00:17:54;;;;;;;17.30;10.18;;;19.90;99.90;;;;;;5088625;28;20545;-89
2023/06/23 00:20:22;;;;;;;17.02;10.45;;;19.90;99.90;;;;;;5107980;28;20189;-87
2023/06/23 00:22:47;;;;;;;15.70;9.45;;;19.90;99.90;;;;;;5099913;27;20224;-85
2023/06/23 00:25:13;;;;;;;17.35;9.65;;;19.80;99.90;;;;;;5075016;28;20625;-86
2023/06/23 00:33:11;;;;;;;18.95;9.60;;;19.80;99.90;;;;;;4932139;29;20747;-80
2023/06/23 00:35:38;;;;;;;16.10;9.30;;;19.70;99.90;;;;;;4926041;29;20227;-78
2023/06/23 00:38:03;;;;;;;16.25;8.32;;;19.70;99.90;;;;;;4936561;29;20184;-83
2023/06/23 00:40:29;;;;;;;13.77;8.15;;;19.70;99.90;;;;;;4919375;29;20187;-77
2023/06/23 00:42:56;;;;;;;13.52;8.00;;;19.70;99.90;;;;;;4924357;29;20180;-77
2023/06/23 00:45:23;;;;;;;11.82;7.88;;;19.70;99.90;;;;;;4930732;29;20199;-77
2023/06/23 00:47:52;;;;;;;12.88;7.78;;;19.60;99.90;;;;;;4915583;29;20620;-77
2023/06/23 00:50:20;;;;;;;12.13;7.35;;;19.60;99.90;;;;;;4934972;29;20191;-77
2023/06/23 00:52:52;;;;;;;12.65;7.00;;;19.60;99.90;;;;;;4920257;29;20195;-77
2023/06/23 00:55:22;;;;;;;17.70;7.78;;;19.60;99.90;;;;;;4935031;29;20636;-77
2023/06/23 00:57:50;;;;;;;13.13;6.72;;;19.60;99.90;;;;;;4914615;29;20188;-77
2023/06/23 01:00:18;;;;;;;14.60;7.18;;;19.60;99.90;;;;;;4933929;29;20242;-77
2023/06/23 01:02:50;;;;;;;14.77;7.13;;;19.60;99.90;;;;;;4936812;29;20180;-77
2023/06/23 01:05:23;;;;;;;11.43;6.93;;;19.50;99.90;;;;;;4926814;29;20274;-76
2023/06/23 01:08:11;;;;;;;13.10;6.50;;;19.50;99.90;;;;;;4917931;29;20939;-76
2023/06/23 01:11:18;;;;;;;12.27;6.88;;;19.50;99.90;;;;;;4930296;29;20183;-76
2023/06/23 01:13:52;;;;;;;15.20;7.05;;;19.50;99.90;;;;;;4879884;29;20282;-76
2023/06/23 01:16:37;;;;;;;10.00;6.68;;;19.50;99.90;;;;;;4912125;29;20192;-77
2023/06/23 01:19:22;;;;;;;11.80;6.88;;;19.50;99.90;;;;;;4905923;29;20224;-82
2023/06/23 01:22:22;;;;;;;10.55;6.68;;;19.50;99.90;;;;;;4926148;29;20191;-77
2023/06/23 01:25:06;;;;;;;12.80;6.78;;;19.40;99.90;;;;;;4929811;29;20187;-78
2023/06/23 01:27:37;;;;;;;10.75;6.30;;;19.40;99.90;;;;;;4931865;29;20250;-78
2023/06/23 01:30:06;;;;;;;13.20;6.38;;;19.40;99.90;;;;;;4925121;29;20180;-77
2023/06/23 01:32:53;;;;;;;14.18;6.38;;;19.40;99.90;;;;;;4914393;29;20234;-78
2023/06/23 01:35:24;;;;;;;10.95;6.55;;;19.30;99.90;;;;;;4930817;29;20286;-78
2023/06/23 01:37:54;;;;;;;11.48;6.35;;;19.30;99.90;;;;;;4931572;29;20195;-78
2023/06/23 01:40:24;;;;;;;13.65;6.43;;;19.30;99.90;;;;;;4930944;29;20199;-76
2023/06/23 01:42:56;;;;;;;11.95;5.95;;;19.30;99.90;;;;;;4918228;29;20219;-77
2023/06/23 01:45:25;;;;;;;12.63;6.40;;;19.30;99.90;;;;;;4933547;29;20184;-79
2023/06/23 01:47:52;;;;;;;11.23;6.28;;;19.30;99.90;;;;;;4934386;29;20274;-76
2023/06/23 01:50:19;;;;;;;13.25;6.15;;;19.30;99.90;;;;;;4934191;29;20597;-76
2023/06/23 01:52:47;;;;;;;10.07;5.88;;;19.30;99.90;;;;;;4918630;29;20266;-76
2023/06/23 01:55:15;;;;;;;12.35;6.18;;;19.30;99.90;;;;;;4918197;29;20179;-79
2023/06/23 01:57:43;;;;;;;10.80;6.07;;;19.30;99.90;;;;;;4918377;29;20211;-78
2023/06/23 02:00:13;;;;;;;10.85;5.90;;;19.30;99.90;;;;;;4916794;29;20310;-79
2023/06/23 02:02:40;;;;;;;11.73;5.90;;;19.30;99.90;;;;;;4935512;29;20195;-78
2023/06/23 02:05:08;;;;;;;13.15;6.18;;;19.20;99.90;;;;;;4918094;29;20262;-79
2023/06/23 02:07:35;;;;;;;10.60;6.03;;;19.30;99.90;;;;;;4894457;29;20213;-76
2023/06/23 02:10:03;;;;;;;11.07;5.95;;;19.30;99.90;;;;;;4922995;29;20195;-77
2023/06/23 02:12:30;;;;;;;14.63;6.00;;;19.30;99.90;;;;;;4932697;29;20194;-76
2023/06/23 02:14:56;;;;;;;13.63;6.25;;;19.20;99.90;;;;;;4935151;29;20183;-76
2023/06/23 02:17:23;;;;;;;11.82;6.15;;;19.20;99.90;;;;;;4911197;29;20290;-76
2023/06/23 02:19:51;;;;;;;11.98;6.05;;;19.20;99.90;;;;;;4925346;29;20679;-76
2023/06/23 02:22:21;;;;;;;10.93;6.18;;;19.20;99.90;;;;;;4930903;29;20243;-76
2023/06/23 02:24:47;;;;;;;12.75;6.53;;;19.20;99.90;;;;;;4915416;29;20176;-76
2023/06/23 02:27:13;;;;;;;14.80;6.43;;;19.20;99.90;;;;;;4928394;29;20187;-76
2023/06/23 02:29:41;;;;;;;8.50;5.47;;;19.20;99.90;;;;;;4919491;29;20247;-76
2023/06/23 02:32:08;;;;;;;11.25;5.85;;;19.20;99.90;;;;;;4934168;29;20235;-79
2023/06/23 02:34:37;;;;;;;10.48;5.55;;;19.20;99.90;;;;;;4933750;29;20659;-77
2023/06/23 02:37:08;;;;;;;10.05;5.10;;;19.20;99.90;;;;;;4917419;29;20218;-83
2023/06/23 02:39:40;;;;;;;10.85;5.45;;;19.20;99.90;;;;;;4933632;29;20305;-78
2023/06/23 02:42:10;;;;;;;12.60;5.53;;;19.20;99.90;;;;;;4913449;29;20278;-83
2023/06/23 02:44:44;;;;;;;10.75;5.50;;;19.20;99.90;;;;;;4921196;29;20298;-78
2023/06/23 02:47:14;;;;;;;13.32;5.90;;;19.20;99.90;;;;;;4908011;29;20206;-78
2023/06/23 02:49:43;;;;;;;11.60;5.43;;;19.20;99.90;;;;;;4928468;29;20225;-77
2023/06/23 02:52:13;;;;;;;10.48;5.65;;;19.20;99.90;;;;;;4924894;29;20184;-77
2023/06/23 02:54:44;;;;;;;11.43;5.28;;;19.20;99.90;;;;;;4919644;29;20619;-77
2023/06/23 02:57:13;;;;;;;11.98;5.70;;;19.20;99.90;;;;;;4918870;29;20327;-77
2023/06/23 02:59:41;;;;;;;11.55;6.10;;;19.20;99.90;;;;;;4912091;29;20356;-77
2023/06/23 03:02:13;;;;;;;10.07;5.45;;;19.20;99.90;;;;;;4916754;29;20278;-78
2023/06/23 03:04:41;;;;;;;8.52;5.53;;;19.10;99.90;;;;;;4917839;29;20192;-78
2023/06/23 03:07:10;;;;;;;10.10;5.70;;;19.20;99.90;;;;;;4914274;29;20225;-79
2023/06/23 03:09:37;;;;;;;10.70;5.38;;;19.20;99.90;;;;;;4914860;29;20202;-78
2023/06/23 03:12:04;;;;;;;12.95;6.03;;;19.10;99.90;;;;;;4914490;29;20281;-81
2023/06/23 03:14:34;;;;;;;11.90;5.43;;;19.10;99.90;;;;;;4928516;29;20175;-78
2023/06/23 03:17:15;;;;;;;10.57;5.88;;;19.10;99.90;;;;;;4916393;29;20896;-76
2023/06/23 03:19:58;;;;;;;10.93;5.70;;;19.10;99.90;;;;;;4912239;29;20217;-79
2023/06/23 03:22:32;;;;;;;11.45;5.93;;;19.10;99.90;;;;;;4934271;29;20198;-76
2023/06/23 03:25:02;;;;;;;8.32;5.55;;;19.10;99.90;;;;;;4930248;29;20184;-78
2023/06/23 03:27:31;;;;;;;9.73;6.03;;;19.00;99.90;;;;;;4916201;29;20326;-77
2023/06/23 03:30:04;;;;;;;11.95;6.07;;;19.00;99.90;;;;;;4929335;29;20195;-76
2023/06/23 03:32:35;;;;;;;10.40;5.78;;;19.00;99.90;;;;;;4930741;29;20219;-78
2023/06/23 03:35:06;;;;;;;11.00;5.68;;;19.00;99.90;;;;;;4930418;29;20286;-79
2023/06/23 03:37:35;;;;;;;12.70;6.20;;;19.00;99.90;;;;;;4931028;29;20176;-76
2023/06/23 03:40:08;;;;;;;8.50;5.55;;;19.00;99.90;;;;;;4916211;29;20243;-77
2023/06/23 03:42:38;;;;;;;9.25;5.38;;;19.00;99.90;;;;;;4915041;29;20222;-77
2023/06/23 03:45:08;;;;;;;9.00;5.95;;;19.00;99.90;;;;;;4920463;29;20239;-82
2023/06/23 03:47:35;;;;;;;9.73;6.13;;;19.00;99.90;;;;;;4930723;29;20180;-76
2023/06/23 03:50:09;;;;;;;12.75;5.78;;;19.00;99.90;;;;;;4917825;29;20184;-76
2023/06/23 03:52:37;;;;;;;10.45;6.07;;;19.00;99.90;;;;;;4931942;29;20206;-77
2023/06/23 03:55:06;;;;;;;12.32;5.57;;;19.00;99.90;;;;;;4927025;29;20192;-81
2023/06/23 03:57:33;;;;;;;8.07;5.25;;;19.00;99.90;;;;;;4930901;29;20531;-77
2023/06/23 04:00:01;;;;;;;9.98;5.90;;;18.90;99.90;;;;;;4932723;29;20234;-77
2023/06/23 04:02:30;;;;;;;10.50;5.97;;;18.90;99.90;;;;;;4934628;29;20198;-76
2023/06/23 04:04:57;;;;;;;9.05;6.22;;;18.90;99.90;;;;;;4935628;29;20191;-76
2023/06/23 04:07:25;;;;;;;10.80;6.07;;;18.90;99.90;;;;;;4934768;29;20191;-77
2023/06/23 04:09:52;;;;;;;13.27;6.22;;;18.90;99.90;;;;;;4937361;29;20631;-75
2023/06/23 04:12:20;;;;;;;11.68;5.90;;;18.90;99.90;;;;;;4932099;29;20175;-76
2023/06/23 04:14:51;;;;;;;6.97;5.53;;;18.90;99.90;;;;;;4936032;29;20310;-76
2023/06/23 04:17:20;;;;;;;8.13;5.55;;;18.90;99.90;;;;;;4923333;29;20188;-78
2023/06/23 04:19:50;;;;;;;10.35;5.93;;;18.90;99.90;;;;;;4931875;29;20211;-77
2023/06/23 04:22:19;;;;;;;10.35;5.75;;;18.90;99.90;;;;;;4917763;29;20215;-77
2023/06/23 04:24:47;;;;;;;9.13;5.68;;;18.90;99.90;;;;;;4929953;29;20219;-77
2023/06/23 04:27:14;;;;;;;10.55;5.90;;;18.90;99.90;;;;;;4931099;29;20176;-78
2023/06/23 04:29:44;;;;;;;11.63;6.13;;;18.90;99.90;;;;;;4935628;29;20190;-77
2023/06/23 04:32:12;;;;;;;9.70;5.68;;;18.90;99.90;;;;;;4934244;29;20227;-77
2023/06/23 04:34:38;;;;;;;10.63;6.20;;;18.90;99.90;;;;;;4928609;29;20202;-77
2023/06/23 04:37:18;;;;;;;11.98;6.15;;;18.90;99.90;;;;;;4926317;29;20282;-79
2023/06/23 04:40:26;;;;;;;11.35;6.03;;;18.90;99.90;;;;;;4912278;29;20274;-78
2023/06/23 04:43:09;;;;;;;10.40;6.07;;;18.90;99.90;;;;;;4908528;29;20198;-78
2023/06/23 04:45:38;;;;;;;11.80;6.55;;;18.90;99.90;;;;;;4909061;29;20192;-79
2023/06/23 04:48:08;;;;;;;10.80;6.25;;;18.90;99.90;;;;;;4929706;29;20895;-85
2023/06/23 04:50:35;;;;;;;9.57;5.82;;;18.90;99.90;;;;;;4928847;29;20195;-79
2023/06/23 04:53:05;;;;;;;11.05;5.90;;;19.00;99.90;;;;;;4927287;29;20242;-83
2023/06/23 04:55:34;;;;;;;12.85;6.45;;;19.00;99.90;;;;;;4913861;29;20215;-79
2023/06/23 04:58:04;;;;;;;12.98;5.85;;;19.00;99.90;;;;;;4906716;29;20217;-78
2023/06/23 05:00:30;;;;;;;12.02;6.57;;;19.00;99.90;;;;;;4929263;29;20202;-78
2023/06/23 05:02:59;;;;;;;12.30;6.20;;;19.00;99.90;;;;;;4927117;29;20679;-79
2023/06/23 05:05:27;;;;;;;11.30;6.85;;;19.00;99.90;;;;;;4927770;29;20196;-81
2023/06/23 05:07:55;;;;;;;10.23;6.78;;;19.00;99.90;;;;;;4931239;29;20190;-79
2023/06/23 05:10:23;;;;;;;12.10;6.72;;;19.00;99.90;;;;;;4934502;29;20191;-78
2023/06/23 05:12:52;;;;;;;10.50;6.80;;;19.00;99.90;;;;;;4914814;29;20199;-77
2023/06/23 05:15:19;;;;;;;12.90;7.10;;;19.10;99.90;;;;;;4917955;29;20192;-75
2023/06/23 05:17:48;;;;;;;12.38;6.88;;;19.10;99.90;;;;;;4915726;29;20210;-75
2023/06/23 05:20:19;;;;;;;13.27;7.43;;;19.10;99.90;;;;;;4932424;29;20246;-76
2023/06/23 05:22:47;;;;;;;12.00;7.07;;;19.10;99.90;;;;;;4930390;29;20202;-76
2023/06/23 05:25:14;;;;;;;12.88;7.45;;;19.10;99.90;;;;;;4931288;29;20636;-78
2023/06/23 05:27:45;;;;;;;12.65;7.35;;;19.10;99.90;;;;;;4923527;29;20309;-76
2023/06/23 05:30:18;;;;;;;13.02;8.02;;;19.10;99.90;;;;;;4916628;29;20632;-83
2023/06/23 05:32:47;;;;;;;15.38;8.00;;;19.10;99.90;;;;;;4932996;29;20239;-76
2023/06/23 05:35:15;;;;;;;15.65;8.18;;;19.10;99.90;;;;;;4911248;29;20629;-76
2023/06/23 05:37:43;;;;;;;12.45;8.00;;;19.20;99.90;;;;;;4918229;29;20175;-76
2023/06/23 05:40:12;;;;;;;12.73;8.18;;;19.20;99.90;;;;;;4933818;29;20210;-78
2023/06/23 05:42:38;;;;;;;23.80;8.48;;;19.10;99.90;;;;;;4895098;29;20209;-78
2023/06/23 05:45:05;;;;;;;12.57;7.88;;;19.10;99.90;;;;;;4917041;29;20648;-79
2023/06/23 05:47:54;;;;;;;13.90;7.88;;;19.10;99.90;;;;;;4918993;29;20191;-76
2023/06/23 05:50:26;;;;;;;18.10;8.20;;;19.10;99.90;;;;;;4932856;29;20207;-78
2023/06/23 05:53:11;;;;;;;10.93;7.53;;;19.10;99.90;;;;;;4926653;29;20202;-77
2023/06/23 05:55:43;;;;;;;12.90;8.23;;;19.10;99.90;;;;;;4918109;29;20188;-78
2023/06/23 05:58:11;;;;;;;17.85;8.38;;;19.10;99.90;;;;;;4916515;29;20183;-79
2023/06/23 06:00:42;;;;;;;15.68;8.57;;;19.10;99.90;;;;;;4932366;29;20188;-80
2023/06/23 06:03:12;;;;;;;15.30;8.43;;;19.10;99.90;;;;;;4933899;29;20186;-77
2023/06/23 06:05:40;;;;;;;12.52;8.45;;;19.00;99.90;;;;;;4908726;29;20183;-78
2023/06/23 06:08:08;;;;;;;13.68;8.50;;;19.10;99.90;;;;;;4927797;29;20198;-78
2023/06/23 06:10:36;;;;;;;14.23;8.80;;;19.10;99.90;;;;;;4926118;29;20191;-77
2023/06/23 06:13:04;;;;;;;16.40;9.40;;;19.10;99.90;;;;;;4933129;29;20573;-78
2023/06/23 06:15:32;;;;;;;15.50;9.30;;;19.20;99.90;;;;;;4934140;29;20199;-78
2023/06/23 06:18:03;;;;;;;16.88;8.73;;;19.30;99.90;;;;;;4930693;29;20544;-76
2023/06/23 06:20:31;;;;;;;14.80;8.85;;;19.30;99.90;;;;;;4927996;29;20249;-77
2023/06/23 06:22:58;;;;;;;12.52;8.82;;;19.40;99.90;;;;;;4933829;29;20231;-78
2023/06/23 06:25:25;;;;;;;14.10;8.68;;;19.50;99.90;;;;;;4917435;29;21069;-78
2023/06/23 06:27:53;;;;;;;18.52;9.13;;;19.60;99.90;;;;;;4926456;29;20188;-77
2023/06/23 06:30:21;;;;;;;13.93;8.52;;;19.60;99.90;;;;;;4895204;29;20278;-76
2023/06/23 06:32:49;;;;;;;17.63;8.30;;;19.70;99.90;;;;;;4920061;29;20230;-75
2023/06/23 06:35:16;;;;;;;11.18;8.43;;;19.70;99.90;;;;;;4931432;29;20191;-78
2023/06/23 06:37:47;;;;;;;11.38;7.57;;;19.90;99.90;;;;;;4913315;29;20549;-78
2023/06/23 06:40:15;;;;;;;13.10;8.18;;;19.90;99.90;;;;;;4916422;29;20325;-77
2023/06/23 06:42:41;;;;;;;14.23;7.68;;;20.00;99.90;;;;;;4923219;29;20222;-77
2023/06/23 06:45:08;;;;;;;14.68;7.80;;;20.10;99.90;;;;;;4932853;29;20195;-78
2023/06/23 06:47:40;;;;;;;10.00;7.28;;;20.20;99.90;;;;;;4928603;29;20188;-83
2023/06/23 06:50:09;;;;;;;10.13;6.07;;;20.30;99.90;;;;;;4932495;29;20195;-78
2023/06/23 06:52:37;;;;;;;10.90;6.85;;;20.40;99.90;;;;;;4932781;29;20589;-81
2023/06/23 06:55:03;;;;;;;8.98;5.70;;;20.50;99.90;;;;;;4935271;29;20191;-77
2023/06/23 06:57:30;;;;;;;8.50;6.05;;;20.60;99.90;;;;;;4918954;29;20266;-77
2023/06/23 06:59:56;;;;;;;9.82;5.80;;;20.70;99.90;;;;;;4935029;29;20281;-77
2023/06/23 07:02:24;;;;;;;8.23;5.47;;;20.80;99.90;;;;;;4918646;29;20278;-78
2023/06/23 07:04:51;;;;;;;8.25;6.00;;;20.90;99.90;;;;;;4918312;29;20208;-78
2023/06/23 07:07:16;;;;;;;9.98;5.70;;;21.00;99.90;;;;;;4935704;29;20187;-77
2023/06/23 07:09:42;;;;;;;9.52;5.45;;;21.10;99.90;;;;;;4926561;29;20192;-77
2023/06/23 07:12:08;;;;;;;7.22;5.25;;;21.10;99.90;;;;;;4916735;29;20184;-78
2023/06/23 07:14:35;;;;;;;7.22;4.90;;;21.20;99.90;;;;;;4899817;29;20527;-76
2023/06/23 07:17:01;;;;;;;7.47;4.82;;;21.30;99.90;;;;;;4929716;29;20278;-77
2023/06/23 07:19:27;;;;;;;7.93;4.68;;;21.40;99.90;;;;;;4918979;29;20302;-78
2023/06/23 07:21:52;;;;;;;7.00;4.57;;;21.50;99.90;;;;;;4927857;29;20199;-78
2023/06/23 07:24:18;;;;;;;6.95;4.40;;;21.60;99.90;;;;;;4935845;29;20274;-76
2023/06/23 07:26:44;;;;;;;7.22;4.70;;;21.70;99.90;;;;;;4935941;29;20187;-76
2023/06/23 07:29:10;;;;;;;6.70;4.47;;;21.80;99.90;;;;;;4926394;29;20675;-75
2023/06/23 07:31:37;;;;;;;5.97;4.22;;;21.90;99.90;;;;;;4925404;29;20701;-82
2023/06/23 07:34:04;;;;;;;6.32;4.20;;;22.00;99.90;;;;;;4923040;29;20215;-78
2023/06/23 07:36:29;;;;;;;6.25;4.40;;;22.10;99.90;;;;;;4923045;29;20684;-77
2023/06/23 07:38:55;;;;;;;8.93;4.45;;;22.20;99.90;;;;;;4936833;29;20298;-82
2023/06/23 07:41:21;;;;;;;5.18;3.80;;;22.20;99.90;;;;;;4941072;29;20270;-77
2023/06/23 07:43:46;;;;;;;6.93;4.47;;;22.40;99.90;;;;;;4942153;29;20561;-78
2023/06/23 07:46:12;;;;;;;7.80;5.10;;;22.40;99.90;;;;;;4926903;29;20206;-78
2023/06/23 07:48:38;;;;;;;5.30;4.40;;;22.50;99.90;;;;;;4944239;29;20219;-77
2023/06/23 07:51:04;;;;;;;5.93;3.80;;;22.50;99.90;;;;;;4939909;29;20201;-76
2023/06/23 07:53:30;;;;;;;6.38;4.15;;;22.60;99.90;;;;;;4903453;29;20191;-76
2023/06/23 07:55:55;;;;;;;6.63;4.43;;;22.70;99.90;;;;;;4926114;29;20183;-76
2023/06/23 07:58:21;;;;;;;7.72;4.00;;;22.80;99.90;;;;;;4934190;29;20176;-82
2023/06/23 08:00:47;;;;;;;6.93;3.63;;;22.80;99.90;;;;;;4929555;29;20194;-77
2023/06/23 08:03:13;;;;;;;5.70;4.10;;;22.90;99.90;;;;;;4941743;29;20194;-77
2023/06/23 08:05:39;;;;;;;5.95;3.92;;;23.10;99.90;;;;;;4940759;29;20204;-76
2023/06/23 08:08:05;;;;;;;5.57;4.50;;;23.10;99.90;;;;;;4924088;29;20222;-77
2023/06/23 08:10:31;;;;;;;8.25;4.15;;;23.20;99.90;;;;;;4941432;29;20191;-78
2023/06/23 08:12:57;;;;;;;7.20;4.10;;;23.40;99.90;;;;;;4939605;29;20218;-80
2023/06/23 08:15:23;;;;;;;5.75;4.07;;;23.40;99.90;;;;;;4940695;29;20744;-77
2023/06/23 08:17:49;;;;;;;5.13;4.10;;;23.50;99.90;;;;;;4922917;29;20182;-77
2023/06/23 08:20:15;;;;;;;6.25;3.63;;;23.60;99.90;;;;;;4925486;29;20211;-77
2023/06/23 08:22:41;;;;;;;6.82;3.90;;;23.60;99.90;;;;;;4939506;29;20853;-78
2023/06/23 08:25:08;;;;;;;4.20;3.50;;;23.70;99.90;;;;;;4922822;29;20187;-76
2023/06/23 08:27:33;;;;;;;5.15;3.60;;;23.80;99.90;;;;;;4921480;29;20202;-78
2023/06/23 08:29:59;;;;;;;6.82;3.80;;;23.90;99.80;;;;;;4933407;29;20183;-76
2023/06/23 08:32:25;;;;;;;5.55;3.63;;;24.00;99.70;;;;;;4936485;29;20739;-76
2023/06/23 08:34:51;;;;;;;6.35;3.58;;;24.10;99.70;;;;;;4939560;29;20651;-77
2023/06/23 08:37:17;;;;;;;6.38;3.80;;;24.20;99.80;;;;;;4920119;29;20232;-79
2023/06/23 08:39:42;;;;;;;5.80;3.70;;;24.30;99.70;;;;;;4911151;29;20218;-80
2023/06/23 08:42:08;;;;;;;7.15;4.40;;;24.40;99.90;;;;;;4903912;29;20668;-77
2023/06/23 08:44:41;;;;;;;8.68;3.47;;;24.50;99.90;;;;;;4915909;29;20251;-81
2023/06/23 08:47:12;;;;;;;5.75;4.03;;;24.60;99.90;;;;;;4936586;29;20603;-79
2023/06/23 08:49:41;;;;;;;6.82;4.15;;;24.70;99.90;;;;;;4938184;29;20187;-81
2023/06/23 08:52:09;;;;;;;10.57;4.68;;;24.80;99.90;;;;;;4933692;29;20198;-79
2023/06/23 08:54:36;;;;;;;5.40;4.18;;;24.90;99.90;;;;;;4937772;29;20667;-78
2023/06/23 08:57:03;;;;;;;11.55;5.13;;;24.90;99.90;;;;;;4894755;29;20463;-79
2023/06/23 08:59:30;;;;;;;6.70;4.85;;;25.00;99.90;;;;;;4918841;29;20219;-78
2023/06/23 09:01:55;;;;;;;7.80;4.13;;;25.00;99.90;;;;;;4916537;29;20191;-79
2023/06/23 09:04:21;;;;;;;7.32;3.88;;;25.10;99.90;;;;;;4933332;29;20187;-79
2023/06/23 09:06:47;;;;;;;8.13;4.00;;;25.10;99.90;;;;;;4886378;29;21589;-77
2023/06/23 09:09:13;;;;;;;5.78;4.00;;;25.20;99.90;;;;;;4920925;29;20184;-78
2023/06/23 09:11:40;;;;;;;6.70;4.03;;;25.20;99.60;;;;;;4933262;29;20206;-79
2023/06/23 09:14:08;;;;;;;7.38;4.45;;;25.30;99.50;;;;;;4918456;29;20202;-78
2023/06/23 09:16:35;;;;;;;7.18;4.50;;;25.30;99.40;;;;;;4921109;29;20213;-77
2023/06/23 09:19:02;;;;;;;5.40;4.20;;;25.30;99.20;;;;;;4921081;29;20210;-79
2023/06/23 09:21:28;;;;;;;11.40;3.95;;;25.30;99.10;;;;;;4931185;29;20187;-79
2023/06/23 09:24:04;;;;;;;5.97;3.70;;;25.30;99.10;;;;;;4936799;29;20640;-76
2023/06/23 09:26:42;;;;;;;6.97;3.63;;;25.40;98.90;;;;;;4936555;29;20266;-78
2023/06/23 09:29:16;;;;;;;6.78;3.22;;;25.50;98.70;;;;;;4919979;29;20274;-77
2023/06/23 09:31:43;;;;;;;7.95;3.65;;;25.60;98.20;;;;;;4925243;29;20729;-77
2023/06/23 09:34:09;;;;;;;4.97;3.55;;;25.60;97.30;;;;;;4932178;29;20265;-77
2023/06/23 09:36:36;;;;;;;6.80;3.35;;;25.70;96.70;;;;;;4930297;29;20199;-77
2023/06/23 09:39:03;;;;;;;6.60;3.17;;;25.80;95.80;;;;;;4907711;29;20562;-78
2023/06/23 09:41:33;;;;;;;3.95;2.83;;;25.80;94.90;;;;;;4917251;29;20712;-78
2023/06/23 09:43:59;;;;;;;5.03;2.65;;;25.90;93.50;;;;;;4919947;29;20194;-77
2023/06/23 09:46:32;;;;;;;3.50;2.58;;;26.00;92.50;;;;;;4931278;29;20187;-79
2023/06/23 09:48:59;;;;;;;6.18;2.60;;;26.00;91.50;;;;;;4931956;29;20274;-77
2023/06/23 09:51:25;;;;;;;7.70;3.10;;;26.10;90.30;;;;;;4917125;29;20195;-77
2023/06/23 09:53:51;;;;;;;8.60;3.00;;;26.10;87.60;;;;;;4935388;29;20205;-77
2023/06/23 09:56:19;;;;;;;4.82;2.60;;;26.20;84.50;;;;;;4936130;29;20712;-76
2023/06/23 09:58:47;;;;;;;3.20;2.33;;;26.30;84.20;;;;;;4935535;29;20278;-77
2023/06/23 10:01:15;;;;;;;7.13;3.00;;;26.40;85.70;;;;;;4935774;29;20226;-75
2023/06/23 10:03:50;;;;;;;5.93;2.65;;;26.40;85.70;;;;;;4916731;29;20247;-77
2023/06/23 10:06:36;;;;;;;3.53;2.72;;;26.50;84.70;;;;;;4934662;29;20198;-78
2023/06/23 10:09:09;;;;;;;4.88;2.80;;;26.60;83.50;;;;;;4919841;29;20645;-77
2023/06/23 10:11:38;;;;;;;7.82;3.50;;;26.70;85.20;;;;;;4936781;29;20199;-78
2023/06/23 10:14:11;;;;;;;5.25;3.65;;;26.70;87.60;;;;;;4916097;29;20188;-78
2023/06/23 10:16:41;;;;;;;5.72;3.53;;;26.70;89.40;;;;;;4927523;29;20201;-79
2023/06/23 10:19:07;;;;;;;10.07;3.85;;;26.70;90.30;;;;;;4918414;29;20246;-78
2023/06/23 10:21:33;;;;;;;5.85;3.60;;;26.80;90.90;;;;;;4917399;29;20540;-78
2023/06/23 10:24:08;;;;;;;5.60;3.60;;;26.80;91.20;;;;;;4905004;29;20631;-80
2023/06/23 10:26:36;;;;;;;9.68;4.18;;;26.90;91.40;;;;;;4931734;29;20242;-78
2023/06/23 10:29:06;;;;;;;5.35;3.83;;;26.90;91.50;;;;;;4926468;29;20191;-78
2023/06/23 10:31:34;;;;;;;5.88;4.00;;;26.90;91.50;;;;;;4918039;29;20184;-80
2023/06/23 10:34:04;;;;;;;5.03;3.50;;;26.90;91.80;;;;;;4928688;29;20269;-78
2023/06/23 10:36:31;;;;;;;6.28;4.05;;;27.00;91.90;;;;;;4935956;29;20278;-77
2023/06/23 10:39:00;;;;;;;5.68;3.95;;;27.10;91.90;;;;;;4918924;29;20738;-77
2023/06/23 10:41:27;;;;;;;6.28;4.03;;;27.10;91.70;;;;;;4922515;29;20191;-76
2023/06/23 10:43:56;;;;;;;6.90;3.50;;;27.10;91.50;;;;;;4917378;29;20632;-78
2023/06/23 10:46:23;;;;;;;6.13;4.30;;;27.10;91.60;;;;;;4927514;29;20188;-78
2023/06/23 10:48:49;;;;;;;7.97;4.40;;;27.20;91.40;;;;;;4919179;29;20194;-77
2023/06/23 10:51:16;;;;;;;9.55;4.10;;;27.20;91.30;;;;;;4919179;29;20194;-76
2023/06/23 10:53:58;;;;;;;6.88;4.68;;;27.20;91.20;;;;;;4918445;29;20183;-75
2023/06/23 10:56:43;;;;;;;7.28;4.75;;;27.20;91.40;;;;;;4930143;29;20194;-78
2023/06/23 10:59:20;;;;;;;5.88;4.97;;;27.20;91.60;;;;;;4935921;29;20202;-77
2023/06/23 11:02:04;;;;;;;7.50;4.95;;;27.20;91.60;;;;;;4935743;29;20167;-79
2023/06/23 11:04:32;;;;;;;8.02;5.43;;;27.30;91.80;;;;;;4917024;29;20184;-77
2023/06/23 11:07:10;;;;;;;8.45;5.45;;;27.30;91.90;;;;;;4905202;29;20650;-78
2023/06/23 11:09:52;;;;;;;8.90;5.43;;;27.30;91.90;;;;;;4918995;29;20187;-77
2023/06/23 11:12:39;;;;;;;7.88;4.80;;;27.30;92.00;;;;;;4935725;29;20250;-77
2023/06/23 11:15:16;;;;;;;10.82;5.90;;;27.30;92.20;;;;;;4935138;29;20209;-77
2023/06/23 11:17:46;;;;;;;10.57;5.53;;;27.30;92.20;;;;;;4929596;29;20257;-77
2023/06/23 11:20:21;;;;;;;9.10;5.40;;;27.30;92.30;;;;;;4930127;29;20211;-77
2023/06/23 11:23:07;;;;;;;9.25;5.90;;;27.30;92.40;;;;;;4935705;29;20535;-77
2023/06/23 11:25:48;;;;;;;10.45;5.97;;;27.40;92.40;;;;;;4935810;29;20616;-77
2023/06/23 11:28:37;;;;;;;12.65;6.00;;;27.40;92.50;;;;;;4933924;29;20182;-78
2023/06/23 11:31:27;;;;;;;10.07;6.30;;;27.40;92.60;;;;;;4918359;29;20527;-78
2023/06/23 11:33:59;;;;;;;10.98;5.80;;;27.40;92.60;;;;;;4924833;29;20227;-78
2023/06/23 11:36:27;;;;;;;11.82;6.22;;;27.50;92.60;;;;;;4933030;29;20297;-78
2023/06/23 11:38:57;;;;;;;12.45;6.20;;;27.40;92.40;;;;;;4913479;29;20591;-78
2023/06/23 11:41:30;;;;;;;9.65;5.82;;;27.40;92.20;;;;;;4935509;29;20175;-78
2023/06/23 11:44:01;;;;;;;9.15;5.82;;;27.40;92.40;;;;;;4899607;29;20199;-77
2023/06/23 11:46:31;;;;;;;9.25;6.10;;;27.40;92.30;;;;;;4916834;29;20179;-77
2023/06/23 11:48:57;;;;;;;13.43;7.45;;;27.40;91.60;;;;;;4920515;29;20319;-77
2023/06/23 11:51:23;;;;;;;9.15;6.13;;;27.40;91.60;;;;;;4933389;29;20361;-78
2023/06/23 11:53:53;;;;;;;8.60;6.75;;;27.40;91.60;;;;;;4928038;29;20363;-78
2023/06/23 11:56:20;;;;;;;13.35;7.05;;;27.30;91.50;;;;;;4921591;29;20187;-78
2023/06/23 11:58:55;;;;;;;10.63;6.97;;;27.30;91.50;;;;;;4931635;29;20699;-79
2023/06/23 12:01:22;;;;;;;7.75;6.05;;;27.30;91.60;;;;;;4928777;29;20295;-78
2023/06/23 12:03:49;;;;;;;8.18;5.38;;;27.30;91.40;;;;;;4924373;29;20187;-79
2023/06/23 12:06:17;;;;;;;11.40;5.80;;;27.40;90.90;;;;;;4915790;29;20205;-78
2023/06/23 12:08:44;;;;;;;11.50;5.78;;;27.40;90.50;;;;;;4934348;29;20222;-78
2023/06/23 12:11:10;;;;;;;10.98;5.25;;;27.40;90.40;;;;;;4918106;29;20234;-78
2023/06/23 12:13:37;;;;;;;12.27;5.05;;;27.40;90.30;;;;;;4934721;29;20176;-79
2023/06/23 12:16:04;;;;;;;12.93;5.50;;;27.40;90.00;;;;;;4933221;29;20186;-78
2023/06/23 12:18:30;;;;;;;7.72;4.53;;;27.40;89.00;;;;;;4926723;29;20195;-79
2023/06/23 12:21:01;;;;;;;7.40;4.20;;;27.30;88.20;;;;;;4937800;29;20548;-79
2023/06/23 12:23:31;;;;;;;10.35;5.00;;;27.30;85.90;;;;;;4936991;29;20178;-78
2023/06/23 12:25:58;;;;;;;6.57;4.22;;;27.30;85.50;;;;;;4938016;29;20316;-79
2023/06/23 12:28:31;;;;;;;6.75;3.90;;;27.30;84.80;;;;;;4932935;29;20171;-79
2023/06/23 12:30:57;;;;;;;8.63;4.07;;;27.40;83.70;;;;;;4934534;29;20639;-78
2023/06/23 12:33:27;;;;;;;7.82;4.07;;;27.40;82.70;;;;;;4938397;29;20226;-78
2023/06/23 12:36:03;;;;;;;11.57;4.75;;;27.40;80.90;;;;;;4917358;29;20610;-78
2023/06/23 12:38:32;;;;;;;6.72;3.28;;;27.40;79.20;;;;;;4937730;29;20208;-78
2023/06/23 12:41:18;;;;;;;6.35;3.30;;;27.50;75.70;;;;;;4924544;29;20271;-78
2023/06/23 12:43:48;;;;;;;9.50;3.30;;;27.50;72.80;;;;;;4919112;29;20186;-78
2023/06/23 12:46:17;;;;;;;6.38;3.20;;;27.50;70.70;;;;;;4920068;29;20258;-78
2023/06/23 12:48:44;;;;;;;8.82;3.13;;;27.50;69.30;;;;;;4903858;29;20267;-79
2023/06/23 12:51:10;;;;;;;7.15;3.33;;;27.60;67.70;;;;;;4919137;29;20187;-79
2023/06/23 12:53:36;;;;;;;4.20;3.10;;;27.60;66.00;;;;;;4927207;29;20258;-78
2023/06/23 12:56:03;;;;;;;6.40;3.20;;;27.70;66.20;;;;;;4920593;29;20286;-78
2023/06/23 12:58:28;;;;;;;8.13;3.05;;;27.70;66.50;;;;;;4936544;29;20194;-78